sensor_id;sensor_type;location;lat;lon;timestamp;P1;durP1;ratioP1;P2;durP2;ratioP2
48006;SDS011;33771;48.180;11.400;2023-12-29T00:02:19;5.20;;;1.60;;
48006;SDS011;33771;48.180;11.400;2023-12-29T00:04:45;2.53;;;1.43;;
48006;SDS011;33771;48.180;11.400;2023-12-29T00:07:11;4.70;;;1.90;;
48006;SDS011;33771;48.180;11.400;2023-12-29T00:09:36;3.63;;;2.10;;
48006;SDS011;33771;48.180;11.400;2023-12-29T00:12:05;3.20;;;1.83;;
48006;SDS011;33771;48.180;11.400;2023-12-29T00:14:32;3.63;;;2.40;;
48006;SDS011;33771;48.180;11.400;2023-12-29T00:16:58;3.67;;;2.10;;
48006;SDS011;33771;48.180;11.400;2023-12-29T00:19:23;2.77;;;1.80;;
48006;SDS011;33771;48.180;11.400;2023-12-29T00:21:49;5.43;;;1.93;;
48006;SDS011;33771;48.180;11.400;2023-12-29T00:24:14;2.63;;;1.77;;
48006;SDS011;33771;48.180;11.400;2023-12-29T00:26:40;3.87;;;1.90;;
48006;SDS011;33771;48.180;11.400;2023-12-29T00:29:05;2.47;;;1.70;;
48006;SDS011;33771;48.180;11.400;2023-12-29T00:31:31;2.67;;;1.80;;
48006;SDS011;33771;48.180;11.400;2023-12-29T00:33:57;2.80;;;1.80;;
48006;SDS011;33771;48.180;11.400;2023-12-29T00:36:23;2.37;;;1.43;;
48006;SDS011;33771;48.180;11.400;2023-12-29T00:38:49;3.60;;;1.80;;
48006;SDS011;33771;48.180;11.400;2023-12-29T00:41:14;3.80;;;1.67;;
48006;SDS011;33771;48.180;11.400;2023-12-29T00:43:40;2.30;;;1.60;;
48006;SDS011;33771;48.180;11.400;2023-12-29T00:46:05;2.90;;;1.60;;
48006;SDS011;33771;48.180;11.400;2023-12-29T00:48:31;2.40;;;1.47;;
48006;SDS011;33771;48.180;11.400;2023-12-29T00:50:57;3.63;;;1.67;;
48006;SDS011;33771;48.180;11.400;2023-12-29T00:53:23;2.50;;;1.50;;
48006;SDS011;33771;48.180;11.400;2023-12-29T00:55:48;2.03;;;1.50;;
48006;SDS011;33771;48.180;11.400;2023-12-29T00:58:14;2.30;;;1.50;;
48006;SDS011;33771;48.180;11.400;2023-12-29T01:00:39;2.47;;;1.67;;
48006;SDS011;33771;48.180;11.400;2023-12-29T01:03:05;2.40;;;1.40;;
48006;SDS011;33771;48.180;11.400;2023-12-29T01:05:30;2.30;;;1.50;;
48006;SDS011;33771;48.180;11.400;2023-12-29T01:07:56;3.43;;;1.60;;
48006;SDS011;33771;48.180;11.400;2023-12-29T01:10:21;1.87;;;1.40;;
48006;SDS011;33771;48.180;11.400;2023-12-29T01:12:47;2.53;;;1.60;;
48006;SDS011;33771;48.180;11.400;2023-12-29T01:15:12;2.50;;;1.30;;
48006;SDS011;33771;48.180;11.400;2023-12-29T01:17:38;2.87;;;1.63;;
48006;SDS011;33771;48.180;11.400;2023-12-29T01:20:04;1.90;;;1.50;;
48006;SDS011;33771;48.180;11.400;2023-12-29T01:22:30;2.00;;;1.50;;
48006;SDS011;33771;48.180;11.400;2023-12-29T01:24:55;3.40;;;1.60;;
48006;SDS011;33771;48.180;11.400;2023-12-29T01:27:23;2.57;;;1.73;;
48006;SDS011;33771;48.180;11.400;2023-12-29T01:29:49;3.17;;;1.57;;
48006;SDS011;33771;48.180;11.400;2023-12-29T01:32:14;2.03;;;1.30;;
48006;SDS011;33771;48.180;11.400;2023-12-29T01:34:40;2.60;;;1.63;;
48006;SDS011;33771;48.180;11.400;2023-12-29T01:37:05;2.23;;;1.60;;
48006;SDS011;33771;48.180;11.400;2023-12-29T01:39:31;5.40;;;1.70;;
48006;SDS011;33771;48.180;11.400;2023-12-29T01:41:58;4.87;;;2.00;;
48006;SDS011;33771;48.180;11.400;2023-12-29T01:44:24;2.50;;;1.73;;
48006;SDS011;33771;48.180;11.400;2023-12-29T01:46:50;2.97;;;1.93;;
48006;SDS011;33771;48.180;11.400;2023-12-29T01:49:18;2.30;;;1.80;;
48006;SDS011;33771;48.180;11.400;2023-12-29T01:51:46;3.27;;;1.60;;
48006;SDS011;33771;48.180;11.400;2023-12-29T01:54:15;3.00;;;1.70;;
48006;SDS011;33771;48.180;11.400;2023-12-29T01:56:42;2.53;;;1.73;;
48006;SDS011;33771;48.180;11.400;2023-12-29T01:59:08;2.03;;;1.60;;
48006;SDS011;33771;48.180;11.400;2023-12-29T02:01:34;2.13;;;1.63;;
48006;SDS011;33771;48.180;11.400;2023-12-29T02:04:02;2.30;;;1.50;;
48006;SDS011;33771;48.180;11.400;2023-12-29T02:06:28;2.17;;;1.67;;
48006;SDS011;33771;48.180;11.400;2023-12-29T02:08:54;3.30;;;1.90;;
48006;SDS011;33771;48.180;11.400;2023-12-29T02:11:20;3.13;;;1.70;;
48006;SDS011;33771;48.180;11.400;2023-12-29T02:13:45;2.93;;;2.03;;
48006;SDS011;33771;48.180;11.400;2023-12-29T02:18:59;3.47;;;1.97;;
48006;SDS011;33771;48.180;11.400;2023-12-29T02:21:29;4.90;;;1.80;;
48006;SDS011;33771;48.180;11.400;2023-12-29T02:23:54;4.40;;;2.00;;
48006;SDS011;33771;48.180;11.400;2023-12-29T02:26:20;2.70;;;2.00;;
48006;SDS011;33771;48.180;11.400;2023-12-29T02:28:51;2.63;;;2.00;;
48006;SDS011;33771;48.180;11.400;2023-12-29T02:31:24;3.73;;;1.90;;
48006;SDS011;33771;48.180;11.400;2023-12-29T02:33:54;3.63;;;2.10;;
48006;SDS011;33771;48.180;11.400;2023-12-29T02:36:20;4.27;;;2.30;;
48006;SDS011;33771;48.180;11.400;2023-12-29T02:38:48;8.73;;;2.23;;
48006;SDS011;33771;48.180;11.400;2023-12-29T02:41:14;4.77;;;2.03;;
48006;SDS011;33771;48.180;11.400;2023-12-29T02:43:40;5.70;;;2.73;;
48006;SDS011;33771;48.180;11.400;2023-12-29T02:46:05;3.50;;;1.80;;
48006;SDS011;33771;48.180;11.400;2023-12-29T02:48:31;3.33;;;2.13;;
48006;SDS011;33771;48.180;11.400;2023-12-29T02:50:56;2.73;;;2.00;;
48006;SDS011;33771;48.180;11.400;2023-12-29T02:53:22;4.47;;;2.60;;
48006;SDS011;33771;48.180;11.400;2023-12-29T02:55:47;4.30;;;2.23;;
48006;SDS011;33771;48.180;11.400;2023-12-29T02:58:13;4.27;;;2.30;;
48006;SDS011;33771;48.180;11.400;2023-12-29T03:00:38;3.13;;;2.17;;
48006;SDS011;33771;48.180;11.400;2023-12-29T03:03:04;3.53;;;2.20;;
48006;SDS011;33771;48.180;11.400;2023-12-29T03:05:30;4.87;;;2.30;;
48006;SDS011;33771;48.180;11.400;2023-12-29T03:07:55;4.17;;;2.00;;
48006;SDS011;33771;48.180;11.400;2023-12-29T03:10:22;3.27;;;2.00;;
48006;SDS011;33771;48.180;11.400;2023-12-29T03:12:48;3.00;;;2.00;;
48006;SDS011;33771;48.180;11.400;2023-12-29T03:15:14;3.73;;;1.90;;
48006;SDS011;33771;48.180;11.400;2023-12-29T03:17:39;4.83;;;2.27;;
48006;SDS011;33771;48.180;11.400;2023-12-29T03:20:05;3.33;;;2.30;;
48006;SDS011;33771;48.180;11.400;2023-12-29T03:22:32;3.10;;;2.00;;
48006;SDS011;33771;48.180;11.400;2023-12-29T03:24:58;5.80;;;2.20;;
48006;SDS011;33771;48.180;11.400;2023-12-29T03:27:23;3.23;;;2.00;;
48006;SDS011;33771;48.180;11.400;2023-12-29T03:29:49;3.30;;;2.00;;
48006;SDS011;33771;48.180;11.400;2023-12-29T03:32:14;3.50;;;1.90;;
48006;SDS011;33771;48.180;11.400;2023-12-29T03:34:40;2.67;;;1.77;;
48006;SDS011;33771;48.180;11.400;2023-12-29T03:37:06;4.57;;;1.93;;
48006;SDS011;33771;48.180;11.400;2023-12-29T03:39:31;4.73;;;2.40;;
48006;SDS011;33771;48.180;11.400;2023-12-29T03:42:00;12.40;;;3.67;;
48006;SDS011;33771;48.180;11.400;2023-12-29T03:44:26;2.50;;;1.70;;
48006;SDS011;33771;48.180;11.400;2023-12-29T03:46:51;4.13;;;2.23;;
48006;SDS011;33771;48.180;11.400;2023-12-29T03:49:17;4.80;;;2.00;;
48006;SDS011;33771;48.180;11.400;2023-12-29T03:51:42;2.87;;;2.10;;
48006;SDS011;33771;48.180;11.400;2023-12-29T03:54:08;4.37;;;2.30;;
48006;SDS011;33771;48.180;11.400;2023-12-29T03:56:33;4.93;;;2.10;;
48006;SDS011;33771;48.180;11.400;2023-12-29T03:58:59;2.73;;;1.93;;
48006;SDS011;33771;48.180;11.400;2023-12-29T04:01:24;3.47;;;2.20;;
48006;SDS011;33771;48.180;11.400;2023-12-29T04:03:50;3.10;;;2.07;;
48006;SDS011;33771;48.180;11.400;2023-12-29T04:06:15;5.67;;;1.80;;
48006;SDS011;33771;48.180;11.400;2023-12-29T04:08:41;4.00;;;2.00;;
48006;SDS011;33771;48.180;11.400;2023-12-29T04:11:08;2.60;;;1.70;;
48006;SDS011;33771;48.180;11.400;2023-12-29T04:13:33;4.00;;;2.20;;
48006;SDS011;33771;48.180;11.400;2023-12-29T04:15:59;3.23;;;2.00;;
48006;SDS011;33771;48.180;11.400;2023-12-29T04:18:25;5.27;;;2.00;;
48006;SDS011;33771;48.180;11.400;2023-12-29T04:20:51;5.50;;;2.10;;
48006;SDS011;33771;48.180;11.400;2023-12-29T04:23:16;6.17;;;2.27;;
48006;SDS011;33771;48.180;11.400;2023-12-29T04:25:42;3.57;;;2.00;;
48006;SDS011;33771;48.180;11.400;2023-12-29T04:28:08;4.67;;;2.30;;
48006;SDS011;33771;48.180;11.400;2023-12-29T04:30:34;3.10;;;1.90;;
48006;SDS011;33771;48.180;11.400;2023-12-29T04:33:00;3.20;;;2.00;;
48006;SDS011;33771;48.180;11.400;2023-12-29T04:35:25;4.30;;;2.17;;
48006;SDS011;33771;48.180;11.400;2023-12-29T04:37:51;3.60;;;2.07;;
48006;SDS011;33771;48.180;11.400;2023-12-29T04:40:17;3.77;;;2.17;;
48006;SDS011;33771;48.180;11.400;2023-12-29T04:42:43;4.03;;;2.00;;
48006;SDS011;33771;48.180;11.400;2023-12-29T04:45:08;3.30;;;2.07;;
48006;SDS011;33771;48.180;11.400;2023-12-29T04:47:35;3.13;;;2.30;;
48006;SDS011;33771;48.180;11.400;2023-12-29T04:50:00;4.20;;;2.10;;
48006;SDS011;33771;48.180;11.400;2023-12-29T04:52:27;4.70;;;2.00;;
48006;SDS011;33771;48.180;11.400;2023-12-29T04:54:52;3.67;;;2.20;;
48006;SDS011;33771;48.180;11.400;2023-12-29T04:57:18;3.93;;;1.97;;
48006;SDS011;33771;48.180;11.400;2023-12-29T04:59:43;5.13;;;1.90;;
48006;SDS011;33771;48.180;11.400;2023-12-29T05:02:09;3.70;;;2.10;;
48006;SDS011;33771;48.180;11.400;2023-12-29T05:04:34;5.13;;;2.20;;
48006;SDS011;33771;48.180;11.400;2023-12-29T05:07:00;4.10;;;2.20;;
48006;SDS011;33771;48.180;11.400;2023-12-29T05:09:25;3.63;;;2.20;;
48006;SDS011;33771;48.180;11.400;2023-12-29T05:11:51;3.17;;;1.90;;
48006;SDS011;33771;48.180;11.400;2023-12-29T05:14:16;2.53;;;2.00;;
48006;SDS011;33771;48.180;11.400;2023-12-29T05:16:42;3.50;;;2.20;;
48006;SDS011;33771;48.180;11.400;2023-12-29T05:19:08;3.33;;;1.97;;
48006;SDS011;33771;48.180;11.400;2023-12-29T05:21:33;4.80;;;2.13;;
48006;SDS011;33771;48.180;11.400;2023-12-29T05:23:59;3.50;;;2.30;;
48006;SDS011;33771;48.180;11.400;2023-12-29T05:26:24;5.03;;;2.10;;
48006;SDS011;33771;48.180;11.400;2023-12-29T05:28:50;4.47;;;2.13;;
48006;SDS011;33771;48.180;11.400;2023-12-29T05:31:16;6.77;;;2.33;;
48006;SDS011;33771;48.180;11.400;2023-12-29T05:33:42;3.60;;;2.10;;
48006;SDS011;33771;48.180;11.400;2023-12-29T05:36:08;3.73;;;2.60;;
48006;SDS011;33771;48.180;11.400;2023-12-29T05:38:34;3.57;;;2.23;;
48006;SDS011;33771;48.180;11.400;2023-12-29T05:41:01;4.00;;;2.30;;
48006;SDS011;33771;48.180;11.400;2023-12-29T05:43:33;4.33;;;2.20;;
48006;SDS011;33771;48.180;11.400;2023-12-29T05:45:59;4.17;;;2.50;;
48006;SDS011;33771;48.180;11.400;2023-12-29T05:48:25;3.07;;;2.00;;
48006;SDS011;33771;48.180;11.400;2023-12-29T05:50:51;3.57;;;2.37;;
48006;SDS011;33771;48.180;11.400;2023-12-29T05:53:17;4.23;;;2.20;;
48006;SDS011;33771;48.180;11.400;2023-12-29T05:55:43;2.83;;;2.00;;
48006;SDS011;33771;48.180;11.400;2023-12-29T05:58:09;4.70;;;2.10;;
48006;SDS011;33771;48.180;11.400;2023-12-29T06:00:38;2.87;;;2.17;;
48006;SDS011;33771;48.180;11.400;2023-12-29T06:03:04;5.17;;;2.10;;
48006;SDS011;33771;48.180;11.400;2023-12-29T06:05:31;3.07;;;2.00;;
48006;SDS011;33771;48.180;11.400;2023-12-29T06:07:57;6.17;;;2.40;;
48006;SDS011;33771;48.180;11.400;2023-12-29T06:10:23;3.73;;;2.10;;
48006;SDS011;33771;48.180;11.400;2023-12-29T06:12:49;2.93;;;1.97;;
48006;SDS011;33771;48.180;11.400;2023-12-29T06:15:14;6.50;;;2.40;;
48006;SDS011;33771;48.180;11.400;2023-12-29T06:17:40;6.73;;;2.43;;
48006;SDS011;33771;48.180;11.400;2023-12-29T06:20:07;4.27;;;2.53;;
48006;SDS011;33771;48.180;11.400;2023-12-29T06:22:33;4.10;;;1.80;;
48006;SDS011;33771;48.180;11.400;2023-12-29T06:24:58;4.97;;;2.10;;
48006;SDS011;33771;48.180;11.400;2023-12-29T06:27:24;4.60;;;1.90;;
48006;SDS011;33771;48.180;11.400;2023-12-29T06:29:50;4.23;;;2.30;;
48006;SDS011;33771;48.180;11.400;2023-12-29T06:32:16;2.80;;;2.00;;
48006;SDS011;33771;48.180;11.400;2023-12-29T06:34:41;3.33;;;2.07;;
48006;SDS011;33771;48.180;11.400;2023-12-29T06:37:07;4.10;;;2.10;;
48006;SDS011;33771;48.180;11.400;2023-12-29T06:39:33;3.40;;;2.13;;
48006;SDS011;33771;48.180;11.400;2023-12-29T06:41:58;4.03;;;2.20;;
48006;SDS011;33771;48.180;11.400;2023-12-29T06:44:23;3.00;;;1.90;;
48006;SDS011;33771;48.180;11.400;2023-12-29T06:46:49;4.23;;;2.10;;
48006;SDS011;33771;48.180;11.400;2023-12-29T06:49:14;2.63;;;1.90;;
48006;SDS011;33771;48.180;11.400;2023-12-29T06:51:40;3.83;;;2.20;;
48006;SDS011;33771;48.180;11.400;2023-12-29T06:54:06;4.83;;;2.03;;
48006;SDS011;33771;48.180;11.400;2023-12-29T06:56:32;4.83;;;2.37;;
48006;SDS011;33771;48.180;11.400;2023-12-29T06:58:57;2.50;;;1.77;;
48006;SDS011;33771;48.180;11.400;2023-12-29T07:01:23;3.67;;;1.80;;
48006;SDS011;33771;48.180;11.400;2023-12-29T07:03:49;3.63;;;2.00;;
48006;SDS011;33771;48.180;11.400;2023-12-29T07:06:15;4.93;;;1.90;;
48006;SDS011;33771;48.180;11.400;2023-12-29T07:08:40;3.77;;;1.80;;
48006;SDS011;33771;48.180;11.400;2023-12-29T07:11:09;2.80;;;1.70;;
48006;SDS011;33771;48.180;11.400;2023-12-29T07:13:36;3.97;;;1.70;;
48006;SDS011;33771;48.180;11.400;2023-12-29T07:16:02;2.30;;;1.80;;
48006;SDS011;33771;48.180;11.400;2023-12-29T07:18:27;2.87;;;1.67;;
48006;SDS011;33771;48.180;11.400;2023-12-29T07:20:53;3.90;;;1.70;;
48006;SDS011;33771;48.180;11.400;2023-12-29T07:23:18;2.80;;;1.57;;
48006;SDS011;33771;48.180;11.400;2023-12-29T07:25:44;2.80;;;2.00;;
48006;SDS011;33771;48.180;11.400;2023-12-29T07:28:10;3.30;;;1.60;;
48006;SDS011;33771;48.180;11.400;2023-12-29T07:30:35;2.93;;;1.73;;
48006;SDS011;33771;48.180;11.400;2023-12-29T07:33:01;3.10;;;1.80;;
48006;SDS011;33771;48.180;11.400;2023-12-29T07:35:27;2.17;;;1.60;;
48006;SDS011;33771;48.180;11.400;2023-12-29T07:37:53;3.13;;;1.50;;
48006;SDS011;33771;48.180;11.400;2023-12-29T07:40:18;2.70;;;1.40;;
48006;SDS011;33771;48.180;11.400;2023-12-29T07:42:44;2.50;;;1.83;;
48006;SDS011;33771;48.180;11.400;2023-12-29T07:45:15;3.33;;;1.80;;
48006;SDS011;33771;48.180;11.400;2023-12-29T07:47:40;2.43;;;1.80;;
48006;SDS011;33771;48.180;11.400;2023-12-29T07:50:06;3.67;;;2.13;;
48006;SDS011;33771;48.180;11.400;2023-12-29T07:52:32;2.43;;;1.53;;
48006;SDS011;33771;48.180;11.400;2023-12-29T07:54:57;2.17;;;1.80;;
48006;SDS011;33771;48.180;11.400;2023-12-29T07:57:23;2.93;;;2.00;;
48006;SDS011;33771;48.180;11.400;2023-12-29T07:59:48;4.07;;;1.70;;
48006;SDS011;33771;48.180;11.400;2023-12-29T08:02:14;3.07;;;2.03;;
48006;SDS011;33771;48.180;11.400;2023-12-29T08:04:39;2.93;;;1.93;;
48006;SDS011;33771;48.180;11.400;2023-12-29T08:07:05;3.40;;;1.87;;
48006;SDS011;33771;48.180;11.400;2023-12-29T08:09:30;3.53;;;2.03;;
48006;SDS011;33771;48.180;11.400;2023-12-29T08:11:56;2.73;;;1.93;;
48006;SDS011;33771;48.180;11.400;2023-12-29T08:14:21;2.60;;;1.90;;
48006;SDS011;33771;48.180;11.400;2023-12-29T08:16:47;2.80;;;1.80;;
48006;SDS011;33771;48.180;11.400;2023-12-29T08:19:12;4.10;;;2.03;;
48006;SDS011;33771;48.180;11.400;2023-12-29T08:21:40;3.90;;;1.90;;
48006;SDS011;33771;48.180;11.400;2023-12-29T08:24:05;4.93;;;2.03;;
48006;SDS011;33771;48.180;11.400;2023-12-29T08:26:31;3.03;;;2.13;;
48006;SDS011;33771;48.180;11.400;2023-12-29T08:28:57;3.27;;;1.83;;
48006;SDS011;33771;48.180;11.400;2023-12-29T08:31:22;4.13;;;2.23;;
48006;SDS011;33771;48.180;11.400;2023-12-29T08:33:48;2.83;;;1.97;;
48006;SDS011;33771;48.180;11.400;2023-12-29T08:36:17;4.10;;;2.30;;
48006;SDS011;33771;48.180;11.400;2023-12-29T08:38:43;3.90;;;2.00;;
48006;SDS011;33771;48.180;11.400;2023-12-29T08:41:09;4.30;;;2.00;;
48006;SDS011;33771;48.180;11.400;2023-12-29T08:43:34;3.40;;;2.27;;
48006;SDS011;33771;48.180;11.400;2023-12-29T08:46:01;4.40;;;2.50;;
48006;SDS011;33771;48.180;11.400;2023-12-29T08:48:27;5.67;;;2.30;;
48006;SDS011;33771;48.180;11.400;2023-12-29T08:50:53;3.73;;;2.10;;
48006;SDS011;33771;48.180;11.400;2023-12-29T08:53:18;4.80;;;2.57;;
48006;SDS011;33771;48.180;11.400;2023-12-29T08:55:44;5.27;;;2.30;;
48006;SDS011;33771;48.180;11.400;2023-12-29T08:58:09;3.77;;;2.10;;
48006;SDS011;33771;48.180;11.400;2023-12-29T09:00:35;5.80;;;2.20;;
48006;SDS011;33771;48.180;11.400;2023-12-29T09:03:00;3.43;;;2.10;;
48006;SDS011;33771;48.180;11.400;2023-12-29T09:05:26;4.77;;;1.90;;
48006;SDS011;33771;48.180;11.400;2023-12-29T09:07:52;3.10;;;2.00;;
48006;SDS011;33771;48.180;11.400;2023-12-29T09:10:17;2.87;;;1.90;;
48006;SDS011;33771;48.180;11.400;2023-12-29T09:12:43;3.63;;;1.90;;
48006;SDS011;33771;48.180;11.400;2023-12-29T09:15:09;2.93;;;2.07;;
48006;SDS011;33771;48.180;11.400;2023-12-29T09:17:34;2.93;;;1.90;;
48006;SDS011;33771;48.180;11.400;2023-12-29T09:20:00;4.47;;;1.80;;
48006;SDS011;33771;48.180;11.400;2023-12-29T09:22:26;7.63;;;2.53;;
48006;SDS011;33771;48.180;11.400;2023-12-29T09:24:54;3.33;;;1.90;;
48006;SDS011;33771;48.180;11.400;2023-12-29T09:27:20;4.67;;;1.87;;
48006;SDS011;33771;48.180;11.400;2023-12-29T09:29:46;2.30;;;1.60;;
48006;SDS011;33771;48.180;11.400;2023-12-29T09:32:12;2.97;;;1.67;;
48006;SDS011;33771;48.180;11.400;2023-12-29T09:34:37;3.87;;;1.63;;
48006;SDS011;33771;48.180;11.400;2023-12-29T09:37:03;3.30;;;1.77;;
48006;SDS011;33771;48.180;11.400;2023-12-29T09:39:28;2.53;;;1.60;;
48006;SDS011;33771;48.180;11.400;2023-12-29T09:41:55;3.70;;;2.00;;
48006;SDS011;33771;48.180;11.400;2023-12-29T09:44:23;2.53;;;1.60;;
48006;SDS011;33771;48.180;11.400;2023-12-29T09:46:52;2.83;;;1.90;;
48006;SDS011;33771;48.180;11.400;2023-12-29T09:49:19;4.37;;;1.70;;
48006;SDS011;33771;48.180;11.400;2023-12-29T09:51:45;2.67;;;1.70;;
48006;SDS011;33771;48.180;11.400;2023-12-29T09:54:11;2.40;;;1.50;;
48006;SDS011;33771;48.180;11.400;2023-12-29T09:56:38;1.97;;;1.60;;
48006;SDS011;33771;48.180;11.400;2023-12-29T09:59:04;2.80;;;1.60;;
48006;SDS011;33771;48.180;11.400;2023-12-29T10:01:33;4.60;;;1.60;;
48006;SDS011;33771;48.180;11.400;2023-12-29T10:03:59;2.03;;;1.50;;
48006;SDS011;33771;48.180;11.400;2023-12-29T10:06:26;2.97;;;1.73;;
48006;SDS011;33771;48.180;11.400;2023-12-29T10:08:55;2.47;;;1.73;;
48006;SDS011;33771;48.180;11.400;2023-12-29T10:11:22;3.70;;;1.50;;
48006;SDS011;33771;48.180;11.400;2023-12-29T10:13:49;2.87;;;1.50;;
48006;SDS011;33771;48.180;11.400;2023-12-29T10:16:32;2.20;;;1.67;;
48006;SDS011;33771;48.180;11.400;2023-12-29T10:22:01;2.23;;;1.40;;
48006;SDS011;33771;48.180;11.400;2023-12-29T10:24:33;2.50;;;1.33;;
48006;SDS011;33771;48.180;11.400;2023-12-29T10:26:59;2.50;;;1.20;;
48006;SDS011;33771;48.180;11.400;2023-12-29T10:29:26;2.40;;;1.00;;
48006;SDS011;33771;48.180;11.400;2023-12-29T10:31:52;5.00;;;1.50;;
48006;SDS011;33771;48.180;11.400;2023-12-29T10:34:21;2.10;;;1.60;;
48006;SDS011;33771;48.180;11.400;2023-12-29T10:39:19;1.47;;;1.10;;
48006;SDS011;33771;48.180;11.400;2023-12-29T10:41:44;3.47;;;1.37;;
48006;SDS011;33771;48.180;11.400;2023-12-29T10:44:10;1.77;;;1.30;;
48006;SDS011;33771;48.180;11.400;2023-12-29T10:46:36;3.60;;;1.43;;
48006;SDS011;33771;48.180;11.400;2023-12-29T10:49:08;2.03;;;1.10;;
48006;SDS011;33771;48.180;11.400;2023-12-29T10:51:37;2.10;;;1.40;;
48006;SDS011;33771;48.180;11.400;2023-12-29T10:54:03;3.93;;;1.40;;
48006;SDS011;33771;48.180;11.400;2023-12-29T10:56:32;2.23;;;1.40;;
48006;SDS011;33771;48.180;11.400;2023-12-29T10:59:04;3.03;;;1.30;;
48006;SDS011;33771;48.180;11.400;2023-12-29T11:01:30;4.67;;;1.40;;
48006;SDS011;33771;48.180;11.400;2023-12-29T11:04:01;2.10;;;1.50;;
48006;SDS011;33771;48.180;11.400;2023-12-29T11:06:29;1.80;;;1.30;;
48006;SDS011;33771;48.180;11.400;2023-12-29T11:09:04;2.92;;;1.40;;
48006;SDS011;33771;48.180;11.400;2023-12-29T11:11:30;3.83;;;1.60;;
48006;SDS011;33771;48.180;11.400;2023-12-29T11:13:56;2.07;;;1.47;;
48006;SDS011;33771;48.180;11.400;2023-12-29T11:16:22;2.43;;;1.50;;
48006;SDS011;33771;48.180;11.400;2023-12-29T11:18:49;3.17;;;1.40;;
48006;SDS011;33771;48.180;11.400;2023-12-29T11:21:16;4.03;;;1.57;;
48006;SDS011;33771;48.180;11.400;2023-12-29T11:23:42;2.20;;;1.40;;
48006;SDS011;33771;48.180;11.400;2023-12-29T11:26:08;2.13;;;1.40;;
48006;SDS011;33771;48.180;11.400;2023-12-29T11:28:34;2.57;;;1.40;;
48006;SDS011;33771;48.180;11.400;2023-12-29T11:31:00;2.33;;;1.47;;
48006;SDS011;33771;48.180;11.400;2023-12-29T11:33:26;2.97;;;1.80;;
48006;SDS011;33771;48.180;11.400;2023-12-29T11:38:52;1.77;;;1.43;;
48006;SDS011;33771;48.180;11.400;2023-12-29T11:41:28;2.47;;;1.53;;
48006;SDS011;33771;48.180;11.400;2023-12-29T11:44:02;3.77;;;1.60;;
48006;SDS011;33771;48.180;11.400;2023-12-29T11:46:37;5.80;;;2.00;;
48006;SDS011;33771;48.180;11.400;2023-12-29T11:49:05;2.93;;;1.67;;
48006;SDS011;33771;48.180;11.400;2023-12-29T11:51:41;1.93;;;1.30;;
48006;SDS011;33771;48.180;11.400;2023-12-29T11:54:08;1.33;;;1.17;;
48006;SDS011;33771;48.180;11.400;2023-12-29T11:56:37;2.00;;;1.40;;
48006;SDS011;33771;48.180;11.400;2023-12-29T11:59:15;2.63;;;1.57;;
48006;SDS011;33771;48.180;11.400;2023-12-29T12:01:50;3.27;;;1.90;;
48006;SDS011;33771;48.180;11.400;2023-12-29T12:04:38;1.90;;;1.30;;
48006;SDS011;33771;48.180;11.400;2023-12-29T12:07:08;1.80;;;1.30;;
48006;SDS011;33771;48.180;11.400;2023-12-29T12:09:49;4.97;;;2.00;;
48006;SDS011;33771;48.180;11.400;2023-12-29T12:12:37;1.90;;;1.30;;
48006;SDS011;33771;48.180;11.400;2023-12-29T12:15:05;1.90;;;1.60;;
48006;SDS011;33771;48.180;11.400;2023-12-29T12:18:00;2.70;;;1.50;;
48006;SDS011;33771;48.180;11.400;2023-12-29T12:20:31;1.90;;;1.20;;
48006;SDS011;33771;48.180;11.400;2023-12-29T12:22:58;2.00;;;1.30;;
48006;SDS011;33771;48.180;11.400;2023-12-29T12:25:25;1.77;;;1.30;;
48006;SDS011;33771;48.180;11.400;2023-12-29T12:27:54;3.73;;;1.20;;
48006;SDS011;33771;48.180;11.400;2023-12-29T12:30:20;3.03;;;1.40;;
48006;SDS011;33771;48.180;11.400;2023-12-29T12:32:46;2.50;;;1.50;;
48006;SDS011;33771;48.180;11.400;2023-12-29T12:35:15;1.93;;;1.17;;
48006;SDS011;33771;48.180;11.400;2023-12-29T12:37:41;2.37;;;1.40;;
48006;SDS011;33771;48.180;11.400;2023-12-29T12:40:07;2.30;;;1.30;;
48006;SDS011;33771;48.180;11.400;2023-12-29T12:42:33;2.00;;;1.20;;
48006;SDS011;33771;48.180;11.400;2023-12-29T12:45:06;1.97;;;1.17;;
48006;SDS011;33771;48.180;11.400;2023-12-29T12:47:42;2.23;;;1.57;;
48006;SDS011;33771;48.180;11.400;2023-12-29T12:50:10;2.40;;;1.40;;
48006;SDS011;33771;48.180;11.400;2023-12-29T12:52:37;2.90;;;1.23;;
48006;SDS011;33771;48.180;11.400;2023-12-29T12:55:03;1.90;;;1.17;;
48006;SDS011;33771;48.180;11.400;2023-12-29T12:57:30;1.77;;;1.17;;
48006;SDS011;33771;48.180;11.400;2023-12-29T12:59:56;3.73;;;1.50;;
48006;SDS011;33771;48.180;11.400;2023-12-29T13:02:25;2.43;;;1.50;;
48006;SDS011;33771;48.180;11.400;2023-12-29T13:04:51;1.77;;;1.30;;
48006;SDS011;33771;48.180;11.400;2023-12-29T13:07:18;3.17;;;1.30;;
48006;SDS011;33771;48.180;11.400;2023-12-29T13:09:45;1.80;;;1.07;;
48006;SDS011;33771;48.180;11.400;2023-12-29T13:12:11;1.57;;;1.37;;
48006;SDS011;33771;48.180;11.400;2023-12-29T13:14:38;1.80;;;1.20;;
48006;SDS011;33771;48.180;11.400;2023-12-29T13:17:07;2.40;;;1.47;;
48006;SDS011;33771;48.180;11.400;2023-12-29T13:19:35;2.10;;;1.00;;
48006;SDS011;33771;48.180;11.400;2023-12-29T13:22:03;2.40;;;1.00;;
48006;SDS011;33771;48.180;11.400;2023-12-29T13:24:31;1.97;;;1.10;;
48006;SDS011;33771;48.180;11.400;2023-12-29T13:26:58;2.73;;;1.40;;
48006;SDS011;33771;48.180;11.400;2023-12-29T13:29:31;1.70;;;0.90;;
48006;SDS011;33771;48.180;11.400;2023-12-29T13:31:59;1.70;;;1.00;;
48006;SDS011;33771;48.180;11.400;2023-12-29T13:34:34;1.90;;;1.20;;
48006;SDS011;33771;48.180;11.400;2023-12-29T13:37:02;1.40;;;1.20;;
48006;SDS011;33771;48.180;11.400;2023-12-29T13:39:29;1.63;;;1.03;;
48006;SDS011;33771;48.180;11.400;2023-12-29T13:42:07;1.63;;;1.20;;
48006;SDS011;33771;48.180;11.400;2023-12-29T13:44:35;2.47;;;1.10;;
48006;SDS011;33771;48.180;11.400;2023-12-29T13:47:04;1.93;;;1.10;;
48006;SDS011;33771;48.180;11.400;2023-12-29T13:49:30;1.73;;;1.10;;
48006;SDS011;33771;48.180;11.400;2023-12-29T13:52:01;3.27;;;1.20;;
48006;SDS011;33771;48.180;11.400;2023-12-29T13:54:27;1.23;;;0.90;;
48006;SDS011;33771;48.180;11.400;2023-12-29T13:56:53;3.73;;;1.23;;
48006;SDS011;33771;48.180;11.400;2023-12-29T13:59:28;1.73;;;1.00;;
48006;SDS011;33771;48.180;11.400;2023-12-29T14:01:55;1.63;;;1.00;;
48006;SDS011;33771;48.180;11.400;2023-12-29T14:04:24;4.03;;;1.40;;
48006;SDS011;33771;48.180;11.400;2023-12-29T14:06:50;1.33;;;0.97;;
48006;SDS011;33771;48.180;11.400;2023-12-29T14:09:24;2.95;;;1.05;;
48006;SDS011;33771;48.180;11.400;2023-12-29T14:11:50;2.47;;;1.17;;
48006;SDS011;33771;48.180;11.400;2023-12-29T14:14:26;1.10;;;0.90;;
48006;SDS011;33771;48.180;11.400;2023-12-29T14:16:52;1.88;;;1.17;;
48006;SDS011;33771;48.180;11.400;2023-12-29T14:19:18;6.47;;;1.97;;
48006;SDS011;33771;48.180;11.400;2023-12-29T14:21:44;1.27;;;1.00;;
48006;SDS011;33771;48.180;11.400;2023-12-29T14:24:14;2.10;;;1.30;;
48006;SDS011;33771;48.180;11.400;2023-12-29T14:26:41;1.70;;;1.20;;
48006;SDS011;33771;48.180;11.400;2023-12-29T14:29:12;3.23;;;1.20;;
48006;SDS011;33771;48.180;11.400;2023-12-29T14:31:39;2.17;;;1.20;;
48006;SDS011;33771;48.180;11.400;2023-12-29T14:34:06;1.70;;;1.10;;
48006;SDS011;33771;48.180;11.400;2023-12-29T14:36:39;2.00;;;1.13;;
48006;SDS011;33771;48.180;11.400;2023-12-29T14:39:06;1.70;;;1.27;;
48006;SDS011;33771;48.180;11.400;2023-12-29T14:41:31;2.50;;;1.30;;
48006;SDS011;33771;48.180;11.400;2023-12-29T14:43:57;4.07;;;1.30;;